Time;durP1;ratioP1;P1;durP2;ratioP2;P2;SDS_P1;SDS_P2;PMS_P1;PMS_P2;Temp;Humidity;BMP_temperature;BMP_pressure;BME280_temperature;BME280_humidity;BME280_pressure;Samples;Min_cycle;Max_cycle;Signal;HPM_P1;HPM_P2
2022/04/07 00:00:21;;;;;;;2.45;0.80;;;;;;;7.73;87.62;95178.81;2075096;28;20217;-69
2022/04/07 00:01:23;;;;;;;1.35;0.80;;;;;;;7.64;87.26;95163.91;2075412;28;20252;-69
2022/04/07 00:02:25;;;;;;;2.17;0.80;;;;;;;7.73;88.11;95189.25;2070752;28;20248;-68
2022/04/07 00:03:27;;;;;;;0.90;0.70;;;;;;;7.71;88.40;95183.34;2066991;28;20198;-68
2022/04/07 00:04:29;;;;;;;2.45;0.98;;;;;;;7.70;87.95;95181.66;2070010;28;20197;-68
2022/04/07 00:05:31;;;;;;;0.90;0.60;;;;;;;7.72;87.04;95177.16;2065439;28;20214;-68
2022/04/07 00:06:33;;;;;;;1.40;0.80;;;;;;;7.56;87.55;95150.69;2068939;28;20234;-69
2022/04/07 00:07:34;;;;;;;0.80;0.70;;;;;;;7.68;87.93;95170.53;2070786;28;20209;-69
2022/04/07 00:08:36;;;;;;;0.95;0.70;;;;;;;7.66;87.57;95167.22;2067644;28;20723;-69
2022/04/07 00:09:38;;;;;;;1.40;0.80;;;;;;;7.70;87.28;95168.63;2067794;28;20194;-69
2022/04/07 00:10:39;;;;;;;1.38;0.75;;;;;;;7.73;87.45;95163.19;2066286;28;20269;-69
2022/04/07 00:11:41;;;;;;;1.98;0.70;;;;;;;7.69;87.45;95162.59;2066921;28;20209;-69
2022/04/07 00:12:44;;;;;;;1.73;0.80;;;;;;;7.67;87.38;95161.06;2066056;28;20229;-69
2022/04/07 00:13:45;;;;;;;1.00;0.90;;;;;;;7.67;88.22;95161.06;2069586;28;20216;-69
2022/04/07 00:14:47;;;;;;;1.33;0.80;;;;;;;7.62;88.20;95166.63;2071199;28;20201;-69
2022/04/07 00:15:49;;;;;;;1.20;0.95;;;;;;;7.59;88.11;95164.28;2067882;28;20611;-70
2022/04/07 00:16:50;;;;;;;1.50;1.00;;;;;;;7.53;88.39;95164.78;2071178;28;20194;-70
2022/04/07 00:17:52;;;;;;;1.63;0.80;;;;;;;7.53;88.65;95159.56;2079225;28;20844;-70
2022/04/07 00:18:53;;;;;;;1.20;0.80;;;;;;;7.56;88.57;95169.72;2069437;28;20213;-70
2022/04/07 00:19:55;;;;;;;1.55;0.85;;;;;;;7.50;88.76;95163.22;2066800;28;20210;-69
2022/04/07 00:20:57;;;;;;;3.78;1.00;;;;;;;7.54;88.47;95161.22;2067868;28;20194;-70
2022/04/07 00:21:59;;;;;;;1.00;0.80;;;;;;;7.54;89.16;95158.59;2074917;28;20202;-70
2022/04/07 00:23:01;;;;;;;0.95;0.82;;;;;;;7.51;88.95;95156.25;2075936;28;20204;-70
2022/04/07 00:24:03;;;;;;;1.75;0.90;;;;;;;7.57;87.57;95157.56;2070204;28;20663;-70
2022/04/07 00:25:05;;;;;;;3.90;0.80;;;;;;;7.58;86.92;95162.63;2068740;28;20205;-70
2022/04/07 00:26:07;;;;;;;1.42;0.73;;;;;;;7.59;87.59;95156.47;2068606;28;20199;-70
2022/04/07 00:27:09;;;;;;;2.13;1.00;;;;;;;7.57;86.31;95140.16;2068950;28;20252;-70
2022/04/07 00:28:11;;;;;;;2.05;1.00;;;;;;;7.58;86.32;95151.38;2070212;28;20195;-70
2022/04/07 00:29:12;;;;;;;2.70;0.90;;;;;;;7.57;86.54;95149.75;2064073;28;20199;-71
2022/04/07 00:30:19;;;;;;;3.00;1.20;;;;;;;7.60;86.53;95152.09;2064259;28;20725;-70
2022/04/07 00:31:21;;;;;;;0.90;0.80;;;;;;;7.55;87.02;95169.84;2066613;28;20210;-70
2022/04/07 00:32:22;;;;;;;6.05;1.40;;;;;;;7.49;87.31;95147.75;2066813;28;20765;-70
2022/04/07 00:33:24;;;;;;;3.03;1.25;;;;;;;7.38;88.21;95142.56;2068475;28;20202;-71
2022/04/07 00:34:25;;;;;;;1.30;1.20;;;;;;;7.40;89.26;95156.28;2069098;28;20191;-71
2022/04/07 00:35:27;;;;;;;5.22;1.35;;;;;;;7.37;88.71;95146.94;2078565;28;20221;-71
2022/04/07 00:36:28;;;;;;;3.05;1.40;;;;;;;7.13;88.99;95108.88;2079269;28;20204;-71
2022/04/07 00:37:30;;;;;;;1.85;0.93;;;;;;;7.33;89.06;95154.16;2067997;28;20232;-71
2022/04/07 00:38:31;;;;;;;1.20;0.85;;;;;;;7.24;89.94;95147.06;2070937;28;20209;-70
2022/04/07 00:39:34;;;;;;;12.60;1.58;;;;;;;7.05;89.46;95113.00;2077884;28;20197;-71
2022/04/07 00:40:35;;;;;;;1.67;1.00;;;;;;;7.26;89.23;95142.56;2068142;28;20275;-71
2022/04/07 00:41:39;;;;;;;1.30;0.95;;;;;;;7.24;89.97;95146.25;2068179;28;20233;-71
2022/04/07 00:42:45;;;;;;;2.00;1.10;;;;;;;7.23;90.46;95144.56;2068419;28;20541;-71
2022/04/07 00:43:50;;;;;;;3.53;1.08;;;;;;;7.14;91.21;95130.50;2071085;28;20212;-70
2022/04/07 00:44:52;;;;;;;1.40;0.90;;;;;;;7.15;91.25;95137.34;2070011;28;20209;-70
2022/04/07 00:45:54;;;;;;;3.53;0.88;;;;;;;7.10;90.91;95142.13;2069344;28;20198;-69
2022/04/07 00:46:55;;;;;;;3.03;1.10;;;;;;;7.10;90.46;95134.31;2068748;28;20197;-70
2022/04/07 00:47:58;;;;;;;2.58;0.80;;;;;;;7.07;90.25;95137.97;2067818;28;20210;-70
2022/04/07 00:49:00;;;;;;;2.55;0.80;;;;;;;7.02;90.08;95124.50;2079025;28;20256;-70
2022/04/07 00:50:02;;;;;;;3.60;1.05;;;;;;;7.00;90.60;95117.72;2078728;28;20248;-70
2022/04/07 00:51:05;;;;;;;1.38;0.77;;;;;;;7.01;90.01;95127.22;2068466;28;20205;-71
2022/04/07 00:52:08;;;;;;;1.10;0.70;;;;;;;6.96;90.26;95117.16;2068821;28;20284;-70
2022/04/07 00:53:09;;;;;;;0.80;0.70;;;;;;;6.98;89.93;95127.44;2068589;28;20823;-70
2022/04/07 00:54:12;;;;;;;1.05;0.90;;;;;;;6.94;90.08;95121.66;2066295;28;20195;-70
2022/04/07 00:55:15;;;;;;;1.10;0.75;;;;;;;6.78;91.15;95098.56;2065952;28;20225;-70
2022/04/07 00:56:17;;;;;;;1.23;0.80;;;;;;;6.87;90.37;95123.91;2065862;28;20198;-70
2022/04/07 00:57:19;;;;;;;1.10;0.70;;;;;;;6.88;90.65;95125.56;2065480;28;20209;-72
2022/04/07 00:58:22;;;;;;;1.55;0.80;;;;;;;6.95;90.21;95132.91;2070093;28;20205;-70
2022/04/07 00:59:24;;;;;;;1.55;0.90;;;;;;;6.93;90.54;95117.38;2068154;28;20779;-70
2022/04/07 01:00:26;;;;;;;5.70;0.77;;;;;;;6.86;91.24;95117.06;2070320;28;20978;-70
2022/04/07 01:01:28;;;;;;;1.00;0.60;;;;;;;6.73;91.52;95106.75;2066926;28;20202;-70
2022/04/07 01:02:30;;;;;;;2.58;0.63;;;;;;;6.79;92.51;95122.84;2075263;28;20194;-70
2022/04/07 01:03:31;;;;;;;1.70;0.90;;;;;;;6.73;92.65;95114.56;2068363;28;20233;-70
2022/04/07 01:04:33;;;;;;;1.00;0.80;;;;;;;6.76;92.60;95123.88;2067286;28;20209;-70
2022/04/07 01:05:35;;;;;;;1.95;0.80;;;;;;;6.77;93.44;95122.97;2066852;28;20241;-70
2022/04/07 01:06:36;;;;;;;1.15;0.75;;;;;;;6.75;94.11;95119.66;2068526;28;20222;-70
2022/04/07 01:07:39;;;;;;;1.85;0.93;;;;;;;6.66;94.40;95104.72;2075816;28;20212;-70
2022/04/07 01:08:41;;;;;;;3.25;0.70;;;;;;;6.63;94.27;95100.59;2074558;28;20198;-70
2022/04/07 01:09:43;;;;;;;1.00;0.70;;;;;;;6.71;94.81;95107.81;2067734;28;20201;-69
2022/04/07 01:10:45;;;;;;;2.88;0.93;;;;;;;6.71;94.79;95113.84;2066674;28;20217;-70
2022/04/07 01:11:49;;;;;;;3.00;0.80;;;;;;;6.73;95.05;95116.34;2069926;28;20194;-69
2022/04/07 01:12:52;;;;;;;1.20;0.82;;;;;;;6.73;95.09;95111.13;2069666;28;20204;-70
2022/04/07 01:13:54;;;;;;;0.93;0.68;;;;;;;6.72;95.05;95104.25;2065236;28;20299;-70
2022/04/07 01:15:00;;;;;;;1.63;0.90;;;;;;;6.70;95.26;95100.94;2069542;28;20328;-69
2022/04/07 01:16:02;;;;;;;1.30;0.70;;;;;;;6.67;95.29;95091.63;2070702;28;20193;-70
2022/04/07 01:17:03;;;;;;;0.80;0.60;;;;;;;6.76;94.11;95103.06;2068320;28;20289;-70
2022/04/07 01:18:05;;;;;;;1.20;0.68;;;;;;;6.83;93.64;95095.63;2066645;28;20220;-69
2022/04/07 01:19:07;;;;;;;0.90;0.70;;;;;;;6.92;92.25;95103.56;2066008;28;20748;-69
2022/04/07 01:20:09;;;;;;;0.80;0.70;;;;;;;6.96;91.80;95096.34;2065050;28;20207;-69
2022/04/07 01:21:14;;;;;;;1.58;0.70;;;;;;;6.99;91.60;95090.06;2067618;28;20191;-70
2022/04/07 01:22:15;;;;;;;1.70;0.85;;;;;;;7.05;91.27;95097.38;2065032;28;20778;-70
2022/04/07 01:23:17;;;;;;;2.17;0.80;;;;;;;6.92;92.14;95082.72;2069076;28;20211;-70
2022/04/07 01:24:27;;;;;;;0.85;0.70;;;;;;;6.83;92.88;95075.63;2065878;28;20201;-70
2022/04/07 01:25:29;;;;;;;1.38;0.90;;;;;;;6.87;92.73;95084.03;2066585;28;20222;-70
2022/04/07 01:26:39;;;;;;;0.90;0.60;;;;;;;6.95;92.43;95080.84;2066966;28;20202;-70
2022/04/07 01:27:41;;;;;;;1.95;0.63;;;;;;;6.91;92.11;95075.84;2066221;28;20205;-70
2022/04/07 01:28:49;;;;;;;1.40;0.70;;;;;;;6.96;91.33;95079.88;2066917;28;20197;-70
2022/04/07 01:29:52;;;;;;;1.33;0.60;;;;;;;6.97;91.07;95076.34;2067431;28;20198;-70
2022/04/07 01:30:54;;;;;;;1.33;0.75;;;;;;;7.07;90.65;95077.25;2068021;28;20224;-70
2022/04/07 01:31:55;;;;;;;1.20;0.70;;;;;;;7.04;90.30;95078.34;2067313;28;20625;-70
2022/04/07 01:32:59;;;;;;;0.90;0.50;;;;;;;6.92;89.75;95054.09;2065639;28;20210;-70
2022/04/07 01:34:02;;;;;;;2.65;0.70;;;;;;;7.09;90.12;95081.38;2067126;28;20549;-70
2022/04/07 01:35:04;;;;;;;0.93;0.65;;;;;;;6.89;90.49;95054.34;2065553;28;20803;-70
2022/04/07 01:36:06;;;;;;;2.35;0.70;;;;;;;7.02;89.18;95082.03;2066002;28;20203;-70
2022/04/07 01:37:09;;;;;;;0.80;0.60;;;;;;;7.02;88.19;95058.59;2069149;28;20216;-70
2022/04/07 01:38:11;;;;;;;0.80;0.50;;;;;;;7.11;87.95;95074.31;2067570;28;20209;-70
2022/04/07 01:39:14;;;;;;;1.00;0.60;;;;;;;7.04;88.36;95075.75;2068315;28;20230;-70
2022/04/07 01:40:18;;;;;;;1.10;0.77;;;;;;;6.89;88.70;95046.53;2069368;28;20224;-70
2022/04/07 01:41:20;;;;;;;1.02;0.70;;;;;;;7.07;87.78;95069.44;2071981;28;20209;-70
2022/04/07 01:42:22;;;;;;;1.63;0.90;;;;;;;7.09;87.42;95070.16;2069683;28;20190;-70
2022/04/07 01:43:25;;;;;;;1.15;0.77;;;;;;;7.03;86.91;95066.25;2067304;28;20198;-71
2022/04/07 01:44:27;;;;;;;1.52;0.75;;;;;;;7.03;86.72;95060.22;2069146;28;20660;-71
2022/04/07 01:45:31;;;;;;;2.97;0.95;;;;;;;7.04;86.87;95061.91;2068775;28;20221;-70
2022/04/07 01:46:33;;;;;;;0.80;0.60;;;;;;;7.06;87.05;95071.25;2068765;28;20232;-70
2022/04/07 01:47:37;;;;;;;3.58;0.70;;;;;;;6.93;87.36;95050.53;2070220;28;20896;-70
2022/04/07 01:48:40;;;;;;;2.80;0.80;;;;;;;6.97;87.19;95065.94;2068856;28;20193;-70
2022/04/07 01:49:45;;;;;;;4.90;0.73;;;;;;;6.98;87.16;95068.41;2069058;28;20264;-70
2022/04/07 01:50:50;;;;;;;0.90;0.52;;;;;;;6.99;87.02;95066.63;2068024;28;20222;-70
2022/04/07 01:51:52;;;;;;;1.00;0.70;;;;;;;6.94;87.40;95059.19;2068912;28;20221;-70
2022/04/07 01:52:53;;;;;;;1.48;0.70;;;;;;;6.96;86.75;95056.44;2072090;28;20319;-70
2022/04/07 01:53:56;;;;;;;2.60;0.70;;;;;;;6.97;86.46;95064.16;2071583;28;20190;-72
2022/04/07 01:55:02;;;;;;;0.90;0.70;;;;;;;7.00;86.69;95060.47;2065563;28;20206;-70
2022/04/07 01:56:06;;;;;;;0.80;0.50;;;;;;;7.00;85.79;95060.47;2070527;28;20198;-71
2022/04/07 01:57:09;;;;;;;1.25;0.80;;;;;;;6.99;86.03;95077.88;2070762;28;20209;-71
2022/04/07 01:58:11;;;;;;;0.80;0.60;;;;;;;7.03;84.87;95049.81;2069012;28;20248;-69
2022/04/07 01:59:13;;;;;;;0.93;0.60;;;;;;;7.10;84.88;95051.00;2069057;28;20197;-69
2022/04/07 02:00:16;;;;;;;0.90;0.60;;;;;;;7.09;84.91;95057.13;2067828;28;20225;-69
2022/04/07 02:01:18;;;;;;;0.90;0.60;;;;;;;7.14;83.86;95057.63;2068913;28;20423;-69
2022/04/07 02:02:23;;;;;;;5.88;1.15;;;;;;;7.13;84.15;95055.94;2069585;28;20558;-69
2022/04/07 02:03:24;;;;;;;0.90;0.70;;;;;;;7.11;84.40;95057.84;2069831;28;20252;-68
2022/04/07 02:04:26;;;;;;;1.55;0.60;;;;;;;7.11;85.06;95063.06;2070415;28;20202;-68
2022/04/07 02:05:28;;;;;;;1.98;0.63;;;;;;;7.08;84.63;95052.91;2070008;28;20780;-68
2022/04/07 02:06:30;;;;;;;1.05;0.70;;;;;;;7.16;84.67;95055.72;2070322;28;20234;-69
2022/04/07 02:07:32;;;;;;;0.80;0.70;;;;;;;7.11;85.20;95050.03;2077210;28;20259;-69
2022/04/07 02:08:34;;;;;;;2.22;0.82;;;;;;;7.07;84.05;95048.63;2075289;28;20202;-69
2022/04/07 02:09:35;;;;;;;0.90;0.70;;;;;;;7.00;84.25;95024.03;2068380;28;20195;-69
2022/04/07 02:10:37;;;;;;;1.83;0.70;;;;;;;7.16;84.25;95047.09;2069236;28;20256;-70
2022/04/07 02:11:38;;;;;;;0.80;0.60;;;;;;;7.20;83.94;95051.09;2067028;28;20625;-69
2022/04/07 02:12:41;;;;;;;0.90;0.63;;;;;;;7.13;83.82;95045.53;2079678;28;20213;-69
2022/04/07 02:13:43;;;;;;;0.80;0.70;;;;;;;7.08;83.88;95038.09;2076168;28;20654;-69
2022/04/07 02:14:45;;;;;;;2.55;0.90;;;;;;;7.16;84.52;95050.50;2076641;28;20209;-69
2022/04/07 02:15:46;;;;;;;0.95;0.70;;;;;;;7.18;84.68;95051.22;2069128;28;20226;-69
2022/04/07 02:16:48;;;;;;;0.95;0.70;;;;;;;7.11;84.37;95044.81;2069929;28;20301;-69
2022/04/07 02:17:49;;;;;;;0.88;0.60;;;;;;;7.22;84.31;95065.63;2069600;28;20205;-69
2022/04/07 02:18:51;;;;;;;1.40;0.90;;;;;;;7.16;83.76;95042.69;2069076;28;20201;-69
2022/04/07 02:19:54;;;;;;;1.05;0.70;;;;;;;7.24;83.81;95053.31;2068466;28;20209;-68
2022/04/07 02:20:56;;;;;;;0.82;0.60;;;;;;;7.27;84.05;95057.44;2069803;28;20193;-69
2022/04/07 02:21:58;;;;;;;3.42;0.70;;;;;;;7.19;83.91;95033.81;2070954;28;20209;-69
2022/04/07 02:22:59;;;;;;;1.50;0.70;;;;;;;7.26;84.43;95051.41;2070711;28;20202;-70
2022/04/07 02:24:01;;;;;;;1.17;0.70;;;;;;;7.24;84.37;95048.13;2079086;28;20246;-70
2022/04/07 02:25:04;;;;;;;0.80;0.60;;;;;;;7.22;84.06;95057.00;2079456;28;20208;-69
2022/04/07 02:26:10;;;;;;;0.90;0.65;;;;;;;7.17;84.98;95041.72;2068523;28;20202;-70
2022/04/07 02:27:12;;;;;;;1.45;0.80;;;;;;;7.17;85.19;95048.72;2070246;28;20202;-70
2022/04/07 02:28:14;;;;;;;0.98;0.80;;;;;;;7.21;85.05;95047.53;2071906;28;20201;-70
2022/04/07 02:29:15;;;;;;;1.90;0.70;;;;;;;7.17;85.60;95052.16;2070959;28;20200;-70
2022/04/07 02:30:17;;;;;;;1.25;0.80;;;;;;;7.10;86.09;95048.41;2068609;28;20229;-69
2022/04/07 02:31:18;;;;;;;1.00;0.70;;;;;;;7.08;86.98;95058.09;2068471;28;20194;-69
2022/04/07 02:32:20;;;;;;;1.05;0.70;;;;;;;7.00;87.38;95045.69;2068283;28;21078;-69
2022/04/07 02:33:21;;;;;;;2.75;0.77;;;;;;;6.93;87.89;95044.50;2066689;28;20198;-69
2022/04/07 02:34:23;;;;;;;1.20;0.73;;;;;;;6.76;88.22;95014.59;2068198;28;20202;-68
2022/04/07 02:35:24;;;;;;;3.38;1.17;;;;;;;6.95;88.77;95052.22;2067945;28;20218;-68
2022/04/07 02:36:26;;;;;;;1.63;0.80;;;;;;;6.88;89.61;95052.69;2068445;28;20205;-67
2022/04/07 02:37:27;;;;;;;0.82;0.63;;;;;;;6.79;90.71;95048.19;2070529;28;20248;-68
2022/04/07 02:38:28;;;;;;;1.30;0.80;;;;;;;6.66;91.70;95037.09;2070141;28;20236;-67
2022/04/07 02:39:29;;;;;;;1.05;0.60;;;;;;;6.73;91.84;95056.50;2070263;28;20549;-68
2022/04/07 02:40:31;;;;;;;2.65;0.88;;;;;;;6.64;92.90;95046.78;2076189;28;20213;-68
2022/04/07 02:41:31;;;;;;;1.43;0.70;;;;;;;6.45;93.82;95022.22;2077558;28;20444;-68
2022/04/07 02:42:33;;;;;;;1.10;0.80;;;;;;;6.50;92.88;95027.88;2069184;28;20934;-67
2022/04/07 02:43:34;;;;;;;3.28;0.80;;;;;;;6.62;93.71;95059.09;2068535;28;20206;-67
2022/04/07 02:44:36;;;;;;;3.70;0.75;;;;;;;6.55;93.79;95045.75;2068578;28;20693;-67
2022/04/07 02:45:37;;;;;;;1.50;0.65;;;;;;;6.58;93.34;95062.88;2067584;28;20230;-67
2022/04/07 02:46:39;;;;;;;1.98;0.77;;;;;;;6.64;92.94;95041.59;2070754;28;20209;-67
2022/04/07 02:47:41;;;;;;;1.35;0.70;;;;;;;6.59;93.65;95048.94;2068884;28;20202;-67
2022/04/07 02:48:42;;;;;;;1.20;0.80;;;;;;;6.56;93.65;95041.38;2070170;28;20208;-67
2022/04/07 02:49:45;;;;;;;1.10;0.90;;;;;;;6.57;94.41;95054.25;2071228;28;20215;-67
2022/04/07 02:50:47;;;;;;;4.07;0.93;;;;;;;6.52;95.20;95046.78;2068335;28;20226;-67
2022/04/07 02:51:50;;;;;;;1.00;0.70;;;;;;;6.46;94.64;95047.25;2067827;28;20205;-67
2022/04/07 02:52:51;;;;;;;1.20;0.80;;;;;;;6.52;95.59;95051.16;2079824;28;20555;-67
2022/04/07 02:53:57;;;;;;;3.15;1.00;;;;;;;6.49;95.97;95046.22;2080041;28;20205;-66
2022/04/07 02:54:59;;;;;;;1.10;0.80;;;;;;;6.40;95.94;95034.75;2069211;28;20212;-66
2022/04/07 02:56:00;;;;;;;1.50;0.80;;;;;;;6.43;96.22;95042.31;2068991;28;20208;-66
2022/04/07 02:57:03;;;;;;;0.80;0.80;;;;;;;6.33;95.93;95036.16;2069537;28;20195;-66
2022/04/07 02:58:04;;;;;;;0.90;0.80;;;;;;;6.45;96.63;95037.81;2069745;28;20202;-66
2022/04/07 02:59:06;;;;;;;0.80;0.60;;;;;;;6.44;95.60;95043.13;2078551;28;20870;-66
2022/04/07 03:00:08;;;;;;;1.27;0.70;;;;;;;6.43;96.21;95034.50;2075151;28;20208;-66
2022/04/07 03:01:14;;;;;;;2.40;0.60;;;;;;;6.29;96.47;95025.19;2070235;28;20281;-66
2022/04/07 03:02:16;;;;;;;0.82;0.63;;;;;;;6.23;96.84;95011.81;2067291;28;20376;-66
2022/04/07 03:03:17;;;;;;;0.90;0.80;;;;;;;6.36;97.16;95035.09;2068232;28;20205;-66
2022/04/07 03:04:19;;;;;;;1.23;0.68;;;;;;;6.19;96.58;95010.38;2068980;28;20284;-66
2022/04/07 03:05:21;;;;;;;1.63;0.93;;;;;;;6.02;96.80;94976.13;2069115;28;20225;-66
2022/04/07 03:06:23;;;;;;;1.10;0.95;;;;;;;6.32;96.98;95030.13;2067453;28;20204;-67
2022/04/07 03:07:24;;;;;;;1.30;0.90;;;;;;;6.37;96.02;95040.19;2067882;28;20220;-66
2022/04/07 03:08:26;;;;;;;0.98;0.70;;;;;;;6.38;96.18;95034.03;2070620;28;20202;-66
2022/04/07 03:09:27;;;;;;;1.00;0.70;;;;;;;6.39;95.87;95037.44;2067420;28;20202;-66
2022/04/07 03:10:29;;;;;;;1.27;0.75;;;;;;;6.41;95.03;95028.59;2069172;28;20222;-66
2022/04/07 03:11:30;;;;;;;1.45;0.90;;;;;;;6.42;95.26;95030.25;2068963;28;20459;-66
2022/04/07 03:12:32;;;;;;;1.20;0.70;;;;;;;6.43;95.41;95034.50;2068062;28;20199;-66
2022/04/07 03:13:34;;;;;;;1.40;0.80;;;;;;;6.41;95.67;95033.81;2068203;28;20212;-66
2022/04/07 03:14:35;;;;;;;1.15;0.77;;;;;;;6.17;96.27;94994.06;2068717;28;20772;-67
2022/04/07 03:15:37;;;;;;;0.80;0.60;;;;;;;6.37;95.21;95032.38;2068497;28;20743;-66
2022/04/07 03:16:39;;;;;;;1.35;0.60;;;;;;;6.40;95.67;95021.72;2067170;28;20282;-66
2022/04/07 03:17:40;;;;;;;1.23;0.80;;;;;;;6.42;95.64;95027.66;2066375;28;20213;-66
2022/04/07 03:18:42;;;;;;;1.13;0.80;;;;;;;6.45;95.88;95018.78;2067690;28;20675;-66
2022/04/07 03:19:43;;;;;;;1.15;0.80;;;;;;;6.41;95.11;95020.81;2076610;28;20193;-66
2022/04/07 03:20:45;;;;;;;3.45;0.80;;;;;;;6.43;94.85;95016.31;2076399;28;20220;-66
2022/04/07 03:21:47;;;;;;;2.17;0.80;;;;;;;6.11;95.13;94959.81;2068854;28;20754;-66
2022/04/07 03:22:49;;;;;;;2.75;1.20;;;;;;;6.47;94.53;95017.72;2069094;28;20668;-67
2022/04/07 03:23:50;;;;;;;1.65;1.05;;;;;;;6.48;94.97;95006.38;2068383;28;20201;-66
2022/04/07 03:24:52;;;;;;;1.05;0.85;;;;;;;6.42;95.10;94998.22;2069427;28;20193;-65
2022/04/07 03:25:54;;;;;;;1.48;0.70;;;;;;;6.15;94.45;94955.19;2065614;28;20198;-66
2022/04/07 03:26:55;;;;;;;1.95;1.00;;;;;;;6.47;94.20;94991.72;2067125;28;20196;-66
2022/04/07 03:27:57;;;;;;;1.85;0.73;;;;;;;6.50;94.12;94999.25;2069639;28;20205;-66
2022/04/07 03:28:58;;;;;;;0.90;0.60;;;;;;;6.48;94.44;94993.34;2067217;28;20209;-66
2022/04/07 03:30:00;;;;;;;1.13;0.70;;;;;;;6.49;94.48;94995.03;2067860;28;20592;-66
2022/04/07 03:31:01;;;;;;;2.95;0.95;;;;;;;6.51;94.07;94992.31;2068451;28;20207;-66
2022/04/07 03:32:04;;;;;;;2.60;1.15;;;;;;;6.51;93.97;94989.72;2068980;28;20193;-66
2022/04/07 03:33:06;;;;;;;1.40;0.98;;;;;;;6.23;93.38;94946.81;2068267;28;20200;-66
2022/04/07 03:34:07;;;;;;;2.75;0.95;;;;;;;6.55;93.05;94998.94;2069848;28;20217;-66
2022/04/07 03:35:09;;;;;;;1.60;0.90;;;;;;;6.57;93.73;94984.03;2069311;28;20198;-66
2022/04/07 03:36:10;;;;;;;2.85;0.80;;;;;;;6.52;94.56;94991.34;2069989;28;20202;-66
2022/04/07 03:37:14;;;;;;;2.75;0.80;;;;;;;6.53;93.40;94996.44;2066231;28;20212;-67
2022/04/07 03:38:16;;;;;;;0.90;0.70;;;;;;;6.49;93.58;94979.41;2068787;28;20204;-66
2022/04/07 03:39:17;;;;;;;1.10;0.80;;;;;;;6.48;94.28;94977.75;2068903;28;20285;-66
2022/04/07 03:40:19;;;;;;;1.10;0.73;;;;;;;6.59;93.22;94983.91;2068423;28;20225;-66
2022/04/07 03:41:20;;;;;;;1.90;0.90;;;;;;;6.53;93.34;94980.00;2068472;28;20202;-66
2022/04/07 03:42:22;;;;;;;1.00;0.80;;;;;;;6.58;92.82;95000.44;2066861;28;20237;-66
2022/04/07 03:43:24;;;;;;;1.30;0.95;;;;;;;6.63;92.68;94990.53;2067962;28;20202;-66
2022/04/07 03:44:26;;;;;;;1.45;0.70;;;;;;;6.47;93.12;94978.72;2067612;28;20213;-66
2022/04/07 03:45:27;;;;;;;1.08;0.70;;;;;;;6.53;92.81;94987.81;2068118;28;20217;-66
2022/04/07 03:46:29;;;;;;;1.38;0.73;;;;;;;6.60;92.37;94988.97;2068212;28;20209;-67
2022/04/07 03:47:30;;;;;;;1.77;1.08;;;;;;;6.60;92.78;94991.56;2066618;28;20198;-66
2022/04/07 03:48:32;;;;;;;1.45;0.70;;;;;;;6.59;92.43;94989.94;2068907;28;20202;-66
2022/04/07 03:49:33;;;;;;;2.35;0.80;;;;;;;6.58;93.10;94993.47;2069156;28;20209;-66
2022/04/07 03:50:35;;;;;;;1.60;0.80;;;;;;;6.63;92.39;94998.31;2078697;28;20295;-66
2022/04/07 03:51:36;;;;;;;0.90;0.70;;;;;;;6.54;92.18;94973.84;2079203;28;20204;-66
2022/04/07 03:52:44;;;;;;;0.90;0.70;;;;;;;6.65;92.06;94989.44;2070295;28;20202;-66
2022/04/07 03:53:45;;;;;;;0.82;0.70;;;;;;;6.70;91.75;94991.69;2069923;28;20206;-67
2022/04/07 03:54:47;;;;;;;1.02;0.85;;;;;;;6.68;92.55;94983.16;2065708;28;20644;-66
2022/04/07 03:55:48;;;;;;;1.00;0.60;;;;;;;6.50;92.44;94960.25;2066399;28;20217;-66
2022/04/07 03:56:50;;;;;;;0.90;0.70;;;;;;;6.62;91.27;94973.25;2068603;28;20225;-66
2022/04/07 03:57:51;;;;;;;1.13;0.80;;;;;;;6.51;92.04;94959.31;2068871;28;20198;-66
2022/04/07 03:58:53;;;;;;;4.40;1.20;;;;;;;6.64;91.74;94973.94;2070861;28;20204;-66
2022/04/07 03:59:55;;;;;;;1.45;0.70;;;;;;;6.60;91.98;94970.75;2068079;28;20696;-66
2022/04/07 04:00:58;;;;;;;1.20;0.75;;;;;;;6.51;91.84;94945.50;2079319;28;20197;-66
2022/04/07 04:01:59;;;;;;;0.98;0.70;;;;;;;6.57;92.11;94955.41;2077636;28;20792;-66
2022/04/07 04:03:01;;;;;;;1.52;0.63;;;;;;;6.53;92.94;94952.22;2068097;28;20248;-66
2022/04/07 04:04:03;;;;;;;1.60;0.77;;;;;;;6.58;92.76;94971.84;2066154;28;20203;-66
2022/04/07 04:05:05;;;;;;;1.17;0.70;;;;;;;6.56;92.76;94969.34;2065778;28;20738;-66
2022/04/07 04:06:06;;;;;;;1.02;0.70;;;;;;;6.55;92.96;94967.72;2068856;28;20693;-65
2022/04/07 04:07:08;;;;;;;2.17;0.90;;;;;;;6.52;92.60;94957.53;2067844;28;20221;-66
2022/04/07 04:08:09;;;;;;;0.95;0.60;;;;;;;6.58;92.25;94972.66;2079375;28;20197;-66
2022/04/07 04:09:11;;;;;;;0.90;0.63;;;;;;;6.63;92.26;94970.53;2079243;28;20193;-66
2022/04/07 04:10:12;;;;;;;0.90;0.70;;;;;;;6.61;92.36;94969.81;2069651;28;20231;-66
2022/04/07 04:11:14;;;;;;;0.85;0.57;;;;;;;6.62;91.87;94968.03;2068071;28;20207;-67
2022/04/07 04:12:15;;;;;;;1.30;0.80;;;;;;;6.58;92.49;94956.22;2067896;28;20198;-66
2022/04/07 04:13:17;;;;;;;1.20;0.60;;;;;;;6.62;91.84;94961.06;2068904;28;20219;-66
2022/04/07 04:14:19;;;;;;;0.70;0.60;;;;;;;6.61;91.94;94959.44;2068142;28;20197;-66
2022/04/07 04:15:20;;;;;;;1.52;0.90;;;;;;;6.57;91.64;94955.41;2068339;28;20225;-66
2022/04/07 04:16:22;;;;;;;1.10;0.80;;;;;;;6.58;91.44;94941.44;2069845;28;20209;-66
2022/04/07 04:17:27;;;;;;;1.30;0.80;;;;;;;6.69;91.12;94958.81;2076722;28;20678;-66
2022/04/07 04:18:29;;;;;;;1.60;0.63;;;;;;;6.73;90.67;94960.22;2076489;28;20215;-67
2022/04/07 04:19:32;;;;;;;1.60;0.60;;;;;;;6.59;91.37;94934.50;2076646;28;20201;-67
2022/04/07 04:20:34;;;;;;;2.22;0.77;;;;;;;6.68;91.60;94957.16;2070261;28;20591;-66
2022/04/07 04:21:36;;;;;;;4.03;0.75;;;;;;;6.75;90.92;94960.94;2066437;28;20712;-66
2022/04/07 04:22:37;;;;;;;0.90;0.70;;;;;;;6.63;91.35;94939.31;2066189;28;20838;-66
2022/04/07 04:23:40;;;;;;;1.00;0.73;;;;;;;6.76;90.52;94953.94;2066903;28;20199;-67
2022/04/07 04:24:42;;;;;;;1.65;0.80;;;;;;;6.72;90.16;94953.34;2066347;28;20300;-66
2022/04/07 04:25:43;;;;;;;1.10;0.70;;;;;;;6.77;90.33;94951.22;2067384;28;20225;-66
2022/04/07 04:26:45;;;;;;;0.93;0.82;;;;;;;6.79;90.68;94964.13;2078112;28;20201;-66
2022/04/07 04:27:46;;;;;;;1.17;0.73;;;;;;;6.81;89.75;94955.22;2079253;28;20202;-66
2022/04/07 04:28:48;;;;;;;1.10;0.80;;;;;;;6.82;89.97;94966.47;2069371;28;20202;-67
2022/04/07 04:29:49;;;;;;;0.98;0.63;;;;;;;6.87;88.94;94957.34;2069268;28;20795;-67
2022/04/07 04:30:51;;;;;;;3.08;1.45;;;;;;;6.87;88.84;94962.53;2067434;28;20226;-66
2022/04/07 04:31:52;;;;;;;3.30;0.85;;;;;;;6.79;89.04;94928.50;2070478;28;20737;-66
2022/04/07 04:32:54;;;;;;;1.15;0.70;;;;;;;6.87;89.14;94954.75;2067815;28;20277;-66
2022/04/07 04:33:55;;;;;;;3.10;1.05;;;;;;;6.82;89.16;94950.84;2068039;28;20194;-67
2022/04/07 04:34:57;;;;;;;2.47;0.70;;;;;;;6.85;89.32;94954.03;2070381;28;20233;-67
2022/04/07 04:35:59;;;;;;;2.00;0.80;;;;;;;6.83;89.94;94950.72;2071047;28;20205;-67
2022/04/07 04:37:00;;;;;;;1.35;0.80;;;;;;;6.82;89.65;94949.09;2067566;28;20208;-66
2022/04/07 04:38:10;;;;;;;2.22;0.88;;;;;;;6.79;89.94;94949.31;2067452;28;20197;-66
2022/04/07 04:39:11;;;;;;;1.38;0.77;;;;;;;6.79;89.33;94949.31;2068054;28;20206;-67
2022/04/07 04:40:13;;;;;;;2.03;0.90;;;;;;;6.87;89.35;94946.94;2067152;28;20724;-66
2022/04/07 04:41:15;;;;;;;1.20;0.80;;;;;;;6.83;89.63;94935.13;2069622;28;20197;-66
2022/04/07 04:42:17;;;;;;;1.33;0.70;;;;;;;6.84;89.71;94928.13;2068654;28;20205;-66
2022/04/07 04:43:18;;;;;;;1.40;0.80;;;;;;;6.80;89.63;94935.38;2067787;28;20642;-67
2022/04/07 04:44:20;;;;;;;1.42;0.70;;;;;;;6.80;90.06;94929.34;2066092;28;20640;-67
2022/04/07 04:45:26;;;;;;;1.65;0.80;;;;;;;6.85;88.87;94915.00;2065520;28;20315;-67
2022/04/07 04:46:28;;;;;;;2.05;0.90;;;;;;;6.79;89.09;94912.09;2065683;28;20197;-66
2022/04/07 04:47:30;;;;;;;0.90;0.70;;;;;;;6.87;89.17;94918.31;2065562;28;20193;-66
2022/04/07 04:48:32;;;;;;;1.35;0.80;;;;;;;6.80;89.21;94908.50;2065385;28;20202;-66
2022/04/07 04:49:33;;;;;;;1.77;0.90;;;;;;;6.89;88.04;94919.00;2065596;28;20225;-67
2022/04/07 04:50:35;;;;;;;2.30;1.00;;;;;;;6.88;88.14;94911.31;2065564;28;20214;-66
2022/04/07 04:51:37;;;;;;;6.65;2.75;;;;;;;6.90;88.87;94912.88;2071059;28;20966;-67
2022/04/07 04:52:38;;;;;;;1.67;1.02;;;;;;;6.94;88.28;94921.25;2071230;28;20200;-66
2022/04/07 04:53:40;;;;;;;2.30;1.60;;;;;;;6.92;87.94;94915.34;2068015;28;20198;-66
2022/04/07 04:54:41;;;;;;;1.75;1.00;;;;;;;6.89;88.04;94902.56;2069614;28;20224;-66
2022/04/07 04:55:43;;;;;;;2.80;1.00;;;;;;;6.93;88.29;94919.59;2069029;28;20229;-67